LRBC/BCM METAR and TAF weather

Enter ICAO airport designator
Station Type Date Time Source
LRBC METAR 2021/07/26 14:30 UTC NOAA

LRBC 261430Z 17009KT CAVOK 30/11 Q1018


Station Type Date Time Source
LRBC Decoded METAR 2021/07/26 14:30 UTC NOAA

Bacau, Romania (LRBC) 46-35N 026-58E 190M
Jul 26, 2021 - 10:30 AM EDT / 2021.07.26 1430 UTC
Wind: from the S (170 degrees) at 10 MPH (9 KT):0
Visibility: greater than 7 mile(s):0
Temperature: 86 F (30 C)
Dew Point: 51 F (11 C)
Relative Humidity: 30%
Pressure (altimeter): 30.06 in. Hg (1018 hPa)
ob: LRBC 261430Z 17009KT CAVOK 30/11 Q1018
cycle: 14

Station Type Date Time Source
LRBC TAF 2010/08/31 20:30 UTC NOAA

TAF LRBC 312030Z 3121/0203 CNL

Example: see airport list